Aérodrome :
LOGIN :

S'inscrire | Disclaimer

   EN    FR    IT 

 










Légende :    VFR   VFR Marginal   IFR   IFR Intensif   IFR Très Intensif
Visi : 
Plafond : 
>= 8 km
>= 3000ft
5 à 8 km
1000 à 3000 ft
1500m à 5 km
500 à 1000 ft
800 à 1500m
200 à 500 ft
< 800m
< 200 ft
Symboles :   Orages  Brouillard  Fortes neiges  Fortes précipitations  Vent > 20 kt
SIGMETs :   Divers  Orages  Givrage  Turbulence  Onde Orograph.  Cendres Volcan.







- Altitude de l'aérodrome : 291 ft
- Code IATA : ORY
- Voir les cartes d'approche


LFPO - Paris-Orly

DERNIER METAR :
  • 210000Z 19002KT CAVOK 17/11 Q1024 NOSIG

METARs EXPIRÉS :
  • 202330Z 19002KT CAVOK 18/10 Q1024 NOSIG
  • 202300Z 20002KT CAVOK 18/09 Q1024 NOSIG
  • 202230Z 21003KT CAVOK 18/09 Q1024 NOSIG
  • 202200Z 22003KT CAVOK 18/09 Q1024 NOSIG
  • 202130Z 22004KT CAVOK 18/09 Q1025 NOSIG

TAF TAF LFPO
Valide du 21 à 00h jusqu'au 22 à 06h UTC


202300Z 2100/2206 VRB03KT CAVOK
TEMPO 2102/2109 12005KT SCT013 BKN025
BECMG 2109/2112 23005KT
ATIS : +33 1 49 75 65 80
Pas de NOTAMs connus pour ce terrain.



MET'MAP, la Météo Aéronautique d'un coup d'oeil ! - Copyright ORBIFLY Décembre 2007 - Disclaimer

ORBIFLY MET'MAP TEAM :

Programmation & Développement : Alexandra Zaïnal
Conception & Développement : Baudouin d'Aumeries
Co-Programmation & Développement : Marc-Olivier Méhu
Soutien technique & logistique : Manuel Goepfert

Contact : metmap@orbifly.com




SOURCES & CREDITS :

   NOAA